sensor_id;sensor_type;location;lat;lon;timestamp;temperature;humidity
14119;DHT22;7138;49.246;9.100;2023-02-01T00:02:00;4.00;99.90
14119;DHT22;7138;49.246;9.100;2023-02-01T00:04:26;4.00;99.90
14119;DHT22;7138;49.246;9.100;2023-02-01T00:06:52;4.00;99.90
14119;DHT22;7138;49.246;9.100;2023-02-01T00:09:18;4.00;99.90
14119;DHT22;7138;49.246;9.100;2023-02-01T00:11:44;4.00;99.90
14119;DHT22;7138;49.246;9.100;2023-02-01T00:14:11;4.00;99.90
14119;DHT22;7138;49.246;9.100;2023-02-01T00:16:38;4.00;99.90
14119;DHT22;7138;49.246;9.100;2023-02-01T00:19:07;4.00;99.90
14119;DHT22;7138;49.246;9.100;2023-02-01T00:21:35;4.00;99.90
14119;DHT22;7138;49.246;9.100;2023-02-01T00:24:01;4.00;99.90
14119;DHT22;7138;49.246;9.100;2023-02-01T00:26:31;4.00;99.90
14119;DHT22;7138;49.246;9.100;2023-02-01T00:28:59;4.00;99.90
14119;DHT22;7138;49.246;9.100;2023-02-01T00:31:25;4.00;99.90
14119;DHT22;7138;49.246;9.100;2023-02-01T00:33:52;4.00;99.90
14119;DHT22;7138;49.246;9.100;2023-02-01T00:36:18;4.10;99.90
14119;DHT22;7138;49.246;9.100;2023-02-01T00:38:44;4.00;99.90
14119;DHT22;7138;49.246;9.100;2023-02-01T00:41:12;4.00;99.90
14119;DHT22;7138;49.246;9.100;2023-02-01T00:43:39;4.00;99.90
14119;DHT22;7138;49.246;9.100;2023-02-01T00:46:06;4.10;99.90
14119;DHT22;7138;49.246;9.100;2023-02-01T00:48:33;4.10;99.90
14119;DHT22;7138;49.246;9.100;2023-02-01T00:51:01;4.10;99.90
14119;DHT22;7138;49.246;9.100;2023-02-01T00:53:28;4.10;99.90
14119;DHT22;7138;49.246;9.100;2023-02-01T00:55:54;4.10;99.90
14119;DHT22;7138;49.246;9.100;2023-02-01T00:58:20;4.10;99.90
14119;DHT22;7138;49.246;9.100;2023-02-01T01:00:46;4.10;99.90
14119;DHT22;7138;49.246;9.100;2023-02-01T01:03:12;4.10;99.90
14119;DHT22;7138;49.246;9.100;2023-02-01T01:05:44;4.10;99.90
14119;DHT22;7138;49.246;9.100;2023-02-01T01:08:12;4.10;99.90
14119;DHT22;7138;49.246;9.100;2023-02-01T01:10:37;4.10;99.90
14119;DHT22;7138;49.246;9.100;2023-02-01T01:13:03;4.10;99.90
14119;DHT22;7138;49.246;9.100;2023-02-01T01:15:29;4.10;99.90
14119;DHT22;7138;49.246;9.100;2023-02-01T01:17:56;4.10;99.90
14119;DHT22;7138;49.246;9.100;2023-02-01T01:20:21;4.20;99.90
14119;DHT22;7138;49.246;9.100;2023-02-01T01:22:47;4.20;99.90
14119;DHT22;7138;49.246;9.100;2023-02-01T01:25:15;4.20;99.90
14119;DHT22;7138;49.246;9.100;2023-02-01T01:27:41;4.20;99.90
14119;DHT22;7138;49.246;9.100;2023-02-01T01:30:07;4.20;99.90
14119;DHT22;7138;49.246;9.100;2023-02-01T01:32:34;4.20;99.90
14119;DHT22;7138;49.246;9.100;2023-02-01T01:35:00;4.20;99.90
14119;DHT22;7138;49.246;9.100;2023-02-01T01:37:26;4.20;99.90
14119;DHT22;7138;49.246;9.100;2023-02-01T01:39:51;4.20;99.90
14119;DHT22;7138;49.246;9.100;2023-02-01T01:42:19;4.20;99.90
14119;DHT22;7138;49.246;9.100;2023-02-01T01:44:57;4.20;99.90
14119;DHT22;7138;49.246;9.100;2023-02-01T01:47:26;4.20;99.90
14119;DHT22;7138;49.246;9.100;2023-02-01T01:49:56;4.20;99.90
14119;DHT22;7138;49.246;9.100;2023-02-01T01:52:22;4.20;99.90
14119;DHT22;7138;49.246;9.100;2023-02-01T01:54:50;4.20;99.90
14119;DHT22;7138;49.246;9.100;2023-02-01T01:57:22;4.20;99.90
14119;DHT22;7138;49.246;9.100;2023-02-01T01:59:58;4.20;99.90
14119;DHT22;7138;49.246;9.100;2023-02-01T02:02:29;4.20;99.90
14119;DHT22;7138;49.246;9.100;2023-02-01T02:04:55;4.20;99.90
14119;DHT22;7138;49.246;9.100;2023-02-01T02:07:24;4.20;99.90
14119;DHT22;7138;49.246;9.100;2023-02-01T02:09:54;4.20;99.90
14119;DHT22;7138;49.246;9.100;2023-02-01T02:12:21;4.20;99.90
14119;DHT22;7138;49.246;9.100;2023-02-01T02:14:48;4.20;99.90
14119;DHT22;7138;49.246;9.100;2023-02-01T02:17:25;4.20;99.90
14119;DHT22;7138;49.246;9.100;2023-02-01T02:20:35;4.20;99.90
14119;DHT22;7138;49.246;9.100;2023-02-01T02:23:38;4.20;99.90
14119;DHT22;7138;49.246;9.100;2023-02-01T02:33:24;4.30;99.90
14119;DHT22;7138;49.246;9.100;2023-02-01T02:36:10;4.30;99.90
14119;DHT22;7138;49.246;9.100;2023-02-01T02:38:49;4.30;99.90
14119;DHT22;7138;49.246;9.100;2023-02-01T02:41:27;4.20;99.90
14119;DHT22;7138;49.246;9.100;2023-02-01T02:44:21;4.20;99.90
14119;DHT22;7138;49.246;9.100;2023-02-01T02:47:15;4.20;99.90
14119;DHT22;7138;49.246;9.100;2023-02-01T02:49:58;4.30;99.90
14119;DHT22;7138;49.246;9.100;2023-02-01T02:52:54;4.20;99.90
14119;DHT22;7138;49.246;9.100;2023-02-01T02:55:45;4.30;99.90
14119;DHT22;7138;49.246;9.100;2023-02-01T02:58:12;4.20;99.90
14119;DHT22;7138;49.246;9.100;2023-02-01T03:00:59;4.20;99.90
14119;DHT22;7138;49.246;9.100;2023-02-01T03:03:44;4.30;99.90
14119;DHT22;7138;49.246;9.100;2023-02-01T03:06:37;4.30;99.90
14119;DHT22;7138;49.246;9.100;2023-02-01T03:09:08;4.30;99.90
14119;DHT22;7138;49.246;9.100;2023-02-01T03:11:39;4.30;99.90
14119;DHT22;7138;49.246;9.100;2023-02-01T03:14:44;4.30;99.90
14119;DHT22;7138;49.246;9.100;2023-02-01T03:17:21;4.30;99.90
14119;DHT22;7138;49.246;9.100;2023-02-01T03:19:52;4.30;99.90
14119;DHT22;7138;49.246;9.100;2023-02-01T03:22:23;4.20;99.90
14119;DHT22;7138;49.246;9.100;2023-02-01T03:25:00;4.30;99.90
14119;DHT22;7138;49.246;9.100;2023-02-01T03:27:32;4.30;99.90
14119;DHT22;7138;49.246;9.100;2023-02-01T03:30:06;4.30;99.90
14119;DHT22;7138;49.246;9.100;2023-02-01T03:32:38;4.30;99.90
14119;DHT22;7138;49.246;9.100;2023-02-01T03:35:29;4.30;99.90
14119;DHT22;7138;49.246;9.100;2023-02-01T03:38:05;4.30;99.90
14119;DHT22;7138;49.246;9.100;2023-02-01T03:40:40;4.30;99.90
14119;DHT22;7138;49.246;9.100;2023-02-01T03:43:09;4.30;99.90
14119;DHT22;7138;49.246;9.100;2023-02-01T03:45:43;4.30;99.90
14119;DHT22;7138;49.246;9.100;2023-02-01T03:48:13;4.30;99.90
14119;DHT22;7138;49.246;9.100;2023-02-01T03:50:46;4.30;99.90
14119;DHT22;7138;49.246;9.100;2023-02-01T03:53:21;4.30;99.90
14119;DHT22;7138;49.246;9.100;2023-02-01T03:55:50;4.30;99.90
14119;DHT22;7138;49.246;9.100;2023-02-01T03:58:20;4.30;99.90
14119;DHT22;7138;49.246;9.100;2023-02-01T04:00:51;4.30;99.90
14119;DHT22;7138;49.246;9.100;2023-02-01T04:03:18;4.30;99.90
14119;DHT22;7138;49.246;9.100;2023-02-01T04:05:45;4.30;99.90
14119;DHT22;7138;49.246;9.100;2023-02-01T04:08:10;4.30;99.90
14119;DHT22;7138;49.246;9.100;2023-02-01T04:10:38;4.30;99.90
14119;DHT22;7138;49.246;9.100;2023-02-01T04:13:03;4.30;99.90
14119;DHT22;7138;49.246;9.100;2023-02-01T04:15:29;4.40;99.90
14119;DHT22;7138;49.246;9.100;2023-02-01T04:17:55;4.30;99.90
14119;DHT22;7138;49.246;9.100;2023-02-01T04:20:21;4.30;99.90
14119;DHT22;7138;49.246;9.100;2023-02-01T04:22:47;4.30;99.90
14119;DHT22;7138;49.246;9.100;2023-02-01T04:25:13;4.30;99.90
14119;DHT22;7138;49.246;9.100;2023-02-01T04:27:40;4.30;99.90
14119;DHT22;7138;49.246;9.100;2023-02-01T04:30:07;4.30;99.90
14119;DHT22;7138;49.246;9.100;2023-02-01T04:32:35;4.30;99.90
14119;DHT22;7138;49.246;9.100;2023-02-01T04:35:01;4.30;99.90
14119;DHT22;7138;49.246;9.100;2023-02-01T04:37:27;4.40;99.90
14119;DHT22;7138;49.246;9.100;2023-02-01T04:39:52;4.30;99.90
14119;DHT22;7138;49.246;9.100;2023-02-01T04:42:18;4.40;99.90
14119;DHT22;7138;49.246;9.100;2023-02-01T04:44:46;4.30;99.90
14119;DHT22;7138;49.246;9.100;2023-02-01T04:47:12;4.30;99.90
14119;DHT22;7138;49.246;9.100;2023-02-01T04:49:37;4.30;99.90
14119;DHT22;7138;49.246;9.100;2023-02-01T04:52:04;4.40;99.90
14119;DHT22;7138;49.246;9.100;2023-02-01T04:54:30;4.40;99.90
14119;DHT22;7138;49.246;9.100;2023-02-01T04:56:55;4.30;99.90
14119;DHT22;7138;49.246;9.100;2023-02-01T04:59:21;4.40;99.90
14119;DHT22;7138;49.246;9.100;2023-02-01T05:01:48;4.30;99.90
14119;DHT22;7138;49.246;9.100;2023-02-01T05:04:14;4.40;99.90
14119;DHT22;7138;49.246;9.100;2023-02-01T05:06:40;4.30;99.90
14119;DHT22;7138;49.246;9.100;2023-02-01T05:09:06;4.40;99.90
14119;DHT22;7138;49.246;9.100;2023-02-01T05:11:32;4.40;99.90
14119;DHT22;7138;49.246;9.100;2023-02-01T05:14:16;4.40;99.90
14119;DHT22;7138;49.246;9.100;2023-02-01T05:16:42;4.40;99.90
14119;DHT22;7138;49.246;9.100;2023-02-01T05:19:09;4.40;99.90
14119;DHT22;7138;49.246;9.100;2023-02-01T05:21:35;4.40;99.90
14119;DHT22;7138;49.246;9.100;2023-02-01T05:24:01;4.50;99.90
14119;DHT22;7138;49.246;9.100;2023-02-01T05:26:38;4.40;99.90
14119;DHT22;7138;49.246;9.100;2023-02-01T05:29:06;4.40;99.90
14119;DHT22;7138;49.246;9.100;2023-02-01T05:31:33;4.40;99.90
14119;DHT22;7138;49.246;9.100;2023-02-01T05:34:00;4.40;99.90
14119;DHT22;7138;49.246;9.100;2023-02-01T05:36:27;4.50;99.90
14119;DHT22;7138;49.246;9.100;2023-02-01T05:38:53;4.40;99.90
14119;DHT22;7138;49.246;9.100;2023-02-01T05:41:19;4.40;99.90
14119;DHT22;7138;49.246;9.100;2023-02-01T05:43:45;4.40;99.90
14119;DHT22;7138;49.246;9.100;2023-02-01T05:46:11;4.40;99.90
14119;DHT22;7138;49.246;9.100;2023-02-01T05:48:38;4.40;99.90
14119;DHT22;7138;49.246;9.100;2023-02-01T05:51:04;4.50;99.90
14119;DHT22;7138;49.246;9.100;2023-02-01T05:53:31;4.40;99.90
14119;DHT22;7138;49.246;9.100;2023-02-01T05:55:57;4.50;99.90
14119;DHT22;7138;49.246;9.100;2023-02-01T05:58:23;4.50;99.90
14119;DHT22;7138;49.246;9.100;2023-02-01T06:00:49;4.50;99.90
14119;DHT22;7138;49.246;9.100;2023-02-01T06:03:16;4.50;99.90
14119;DHT22;7138;49.246;9.100;2023-02-01T06:05:43;4.40;99.90
14119;DHT22;7138;49.246;9.100;2023-02-01T06:08:09;4.40;99.90
14119;DHT22;7138;49.246;9.100;2023-02-01T06:10:36;4.50;99.90
14119;DHT22;7138;49.246;9.100;2023-02-01T06:13:02;4.40;99.90
14119;DHT22;7138;49.246;9.100;2023-02-01T06:15:29;4.40;99.90
14119;DHT22;7138;49.246;9.100;2023-02-01T06:17:55;4.50;99.90
14119;DHT22;7138;49.246;9.100;2023-02-01T06:20:20;4.40;99.90
14119;DHT22;7138;49.246;9.100;2023-02-01T06:22:47;4.30;99.90
14119;DHT22;7138;49.246;9.100;2023-02-01T06:25:13;4.30;99.90
14119;DHT22;7138;49.246;9.100;2023-02-01T06:27:40;4.20;99.90
14119;DHT22;7138;49.246;9.100;2023-02-01T06:30:07;4.30;99.90
14119;DHT22;7138;49.246;9.100;2023-02-01T06:32:34;4.20;99.90
14119;DHT22;7138;49.246;9.100;2023-02-01T06:35:00;4.30;99.90
14119;DHT22;7138;49.246;9.100;2023-02-01T06:37:26;4.30;99.90
14119;DHT22;7138;49.246;9.100;2023-02-01T06:39:54;4.30;99.90
14119;DHT22;7138;49.246;9.100;2023-02-01T06:42:20;4.20;99.90
14119;DHT22;7138;49.246;9.100;2023-02-01T06:44:47;4.30;99.90
14119;DHT22;7138;49.246;9.100;2023-02-01T06:47:13;4.30;99.90
14119;DHT22;7138;49.246;9.100;2023-02-01T06:49:39;4.30;99.90
14119;DHT22;7138;49.246;9.100;2023-02-01T06:52:06;4.30;99.90
14119;DHT22;7138;49.246;9.100;2023-02-01T06:54:32;4.30;99.90
14119;DHT22;7138;49.246;9.100;2023-02-01T06:56:59;4.30;99.90
14119;DHT22;7138;49.246;9.100;2023-02-01T06:59:25;4.30;99.90
14119;DHT22;7138;49.246;9.100;2023-02-01T07:01:52;4.30;99.90
14119;DHT22;7138;49.246;9.100;2023-02-01T07:04:18;4.30;99.90
14119;DHT22;7138;49.246;9.100;2023-02-01T07:06:44;4.30;99.90
14119;DHT22;7138;49.246;9.100;2023-02-01T07:09:10;4.30;99.90
14119;DHT22;7138;49.246;9.100;2023-02-01T07:11:37;4.40;99.90
14119;DHT22;7138;49.246;9.100;2023-02-01T07:14:06;4.40;99.90
14119;DHT22;7138;49.246;9.100;2023-02-01T07:16:32;4.30;99.90
14119;DHT22;7138;49.246;9.100;2023-02-01T07:18:59;4.30;99.90
14119;DHT22;7138;49.246;9.100;2023-02-01T07:21:25;4.30;99.90
14119;DHT22;7138;49.246;9.100;2023-02-01T07:23:53;4.30;99.90
14119;DHT22;7138;49.246;9.100;2023-02-01T07:26:19;4.30;99.90
14119;DHT22;7138;49.246;9.100;2023-02-01T07:28:45;4.30;99.90
14119;DHT22;7138;49.246;9.100;2023-02-01T07:31:13;4.30;99.90
14119;DHT22;7138;49.246;9.100;2023-02-01T07:33:47;4.30;99.90
14119;DHT22;7138;49.246;9.100;2023-02-01T07:36:18;4.30;99.90
14119;DHT22;7138;49.246;9.100;2023-02-01T07:38:44;4.30;99.90
14119;DHT22;7138;49.246;9.100;2023-02-01T07:41:12;4.20;99.90
14119;DHT22;7138;49.246;9.100;2023-02-01T07:43:41;4.20;99.90
14119;DHT22;7138;49.246;9.100;2023-02-01T07:46:07;4.20;99.90
14119;DHT22;7138;49.246;9.100;2023-02-01T07:48:36;4.10;99.90
14119;DHT22;7138;49.246;9.100;2023-02-01T07:51:03;4.10;99.90
14119;DHT22;7138;49.246;9.100;2023-02-01T07:53:33;4.20;99.90
14119;DHT22;7138;49.246;9.100;2023-02-01T07:56:00;4.20;99.90
14119;DHT22;7138;49.246;9.100;2023-02-01T07:58:27;4.20;99.90
14119;DHT22;7138;49.246;9.100;2023-02-01T08:00:54;4.30;99.90
14119;DHT22;7138;49.246;9.100;2023-02-01T08:03:39;4.30;99.90
14119;DHT22;7138;49.246;9.100;2023-02-01T08:06:05;4.30;99.90
14119;DHT22;7138;49.246;9.100;2023-02-01T08:08:33;4.40;99.90
14119;DHT22;7138;49.246;9.100;2023-02-01T08:10:59;4.40;99.90
14119;DHT22;7138;49.246;9.100;2023-02-01T08:13:26;4.40;99.90
14119;DHT22;7138;49.246;9.100;2023-02-01T08:15:52;4.40;99.90
14119;DHT22;7138;49.246;9.100;2023-02-01T08:18:23;4.40;99.90
14119;DHT22;7138;49.246;9.100;2023-02-01T08:20:49;4.50;99.90
14119;DHT22;7138;49.246;9.100;2023-02-01T08:23:15;4.60;99.90
14119;DHT22;7138;49.246;9.100;2023-02-01T08:25:42;4.60;99.90
14119;DHT22;7138;49.246;9.100;2023-02-01T08:28:08;4.60;99.90
14119;DHT22;7138;49.246;9.100;2023-02-01T08:30:36;4.60;99.90
14119;DHT22;7138;49.246;9.100;2023-02-01T08:33:03;4.60;99.90
14119;DHT22;7138;49.246;9.100;2023-02-01T08:35:31;4.70;99.90
14119;DHT22;7138;49.246;9.100;2023-02-01T08:37:57;4.70;99.90
14119;DHT22;7138;49.246;9.100;2023-02-01T08:40:23;4.70;99.90
14119;DHT22;7138;49.246;9.100;2023-02-01T08:42:50;4.70;99.90
14119;DHT22;7138;49.246;9.100;2023-02-01T08:45:16;4.60;99.90
14119;DHT22;7138;49.246;9.100;2023-02-01T08:47:42;4.70;99.90
14119;DHT22;7138;49.246;9.100;2023-02-01T08:50:09;4.70;99.90
14119;DHT22;7138;49.246;9.100;2023-02-01T08:52:36;4.70;99.90
14119;DHT22;7138;49.246;9.100;2023-02-01T08:55:02;4.60;99.90
14119;DHT22;7138;49.246;9.100;2023-02-01T08:57:27;4.60;99.90
14119;DHT22;7138;49.246;9.100;2023-02-01T08:59:55;4.60;99.90
14119;DHT22;7138;49.246;9.100;2023-02-01T09:02:20;4.60;99.90
14119;DHT22;7138;49.246;9.100;2023-02-01T09:04:46;4.60;99.90
14119;DHT22;7138;49.246;9.100;2023-02-01T09:07:12;4.60;99.90
14119;DHT22;7138;49.246;9.100;2023-02-01T09:09:39;4.70;99.90
14119;DHT22;7138;49.246;9.100;2023-02-01T09:12:05;4.80;99.90
14119;DHT22;7138;49.246;9.100;2023-02-01T09:14:31;4.90;99.90
14119;DHT22;7138;49.246;9.100;2023-02-01T09:16:58;5.00;99.90
14119;DHT22;7138;49.246;9.100;2023-02-01T09:19:24;5.00;99.90
14119;DHT22;7138;49.246;9.100;2023-02-01T09:21:50;5.00;99.90
14119;DHT22;7138;49.246;9.100;2023-02-01T09:24:16;5.00;99.90
14119;DHT22;7138;49.246;9.100;2023-02-01T09:26:43;5.00;99.90
14119;DHT22;7138;49.246;9.100;2023-02-01T09:29:08;5.00;99.90
14119;DHT22;7138;49.246;9.100;2023-02-01T09:31:37;5.00;99.90
14119;DHT22;7138;49.246;9.100;2023-02-01T09:34:06;5.00;99.90
14119;DHT22;7138;49.246;9.100;2023-02-01T09:36:33;5.00;99.90
14119;DHT22;7138;49.246;9.100;2023-02-01T09:39:00;5.00;99.90
14119;DHT22;7138;49.246;9.100;2023-02-01T09:41:35;5.10;99.90
14119;DHT22;7138;49.246;9.100;2023-02-01T09:44:19;5.10;99.90
14119;DHT22;7138;49.246;9.100;2023-02-01T09:46:58;5.10;99.90
14119;DHT22;7138;49.246;9.100;2023-02-01T09:49:30;5.00;99.90
14119;DHT22;7138;49.246;9.100;2023-02-01T09:52:02;5.00;99.90
14119;DHT22;7138;49.246;9.100;2023-02-01T09:54:41;5.10;99.90
14119;DHT22;7138;49.246;9.100;2023-02-01T09:57:16;5.10;99.90
14119;DHT22;7138;49.246;9.100;2023-02-01T09:59:49;5.10;99.90
14119;DHT22;7138;49.246;9.100;2023-02-01T10:02:23;5.20;99.90
14119;DHT22;7138;49.246;9.100;2023-02-01T10:04:54;5.30;99.90
14119;DHT22;7138;49.246;9.100;2023-02-01T10:07:31;5.40;99.90
14119;DHT22;7138;49.246;9.100;2023-02-01T10:10:05;5.40;99.90
14119;DHT22;7138;49.246;9.100;2023-02-01T10:13:00;5.40;99.90
14119;DHT22;7138;49.246;9.100;2023-02-01T10:15:45;5.20;99.90
14119;DHT22;7138;49.246;9.100;2023-02-01T10:18:34;5.10;99.90
14119;DHT22;7138;49.246;9.100;2023-02-01T10:21:41;5.00;99.90
14119;DHT22;7138;49.246;9.100;2023-02-01T10:24:34;5.00;99.90
14119;DHT22;7138;49.246;9.100;2023-02-01T10:27:12;5.10;99.90
14119;DHT22;7138;49.246;9.100;2023-02-01T10:29:44;5.70;99.90
14119;DHT22;7138;49.246;9.100;2023-02-01T10:32:14;5.90;99.90
14119;DHT22;7138;49.246;9.100;2023-02-01T10:34:44;5.90;99.90
14119;DHT22;7138;49.246;9.100;2023-02-01T10:37:27;5.90;99.90
14119;DHT22;7138;49.246;9.100;2023-02-01T10:39:56;5.90;99.90
14119;DHT22;7138;49.246;9.100;2023-02-01T10:42:27;5.80;99.90
14119;DHT22;7138;49.246;9.100;2023-02-01T10:44:54;5.70;99.90
14119;DHT22;7138;49.246;9.100;2023-02-01T10:47:23;5.70;99.90
14119;DHT22;7138;49.246;9.100;2023-02-01T10:49:54;5.70;99.90
14119;DHT22;7138;49.246;9.100;2023-02-01T10:52:36;5.70;99.90
14119;DHT22;7138;49.246;9.100;2023-02-01T10:55:26;5.70;99.90
14119;DHT22;7138;49.246;9.100;2023-02-01T10:57:59;5.70;99.90
14119;DHT22;7138;49.246;9.100;2023-02-01T11:00:27;5.70;99.90
14119;DHT22;7138;49.246;9.100;2023-02-01T11:02:59;5.80;99.90
14119;DHT22;7138;49.246;9.100;2023-02-01T11:05:25;5.80;99.90
14119;DHT22;7138;49.246;9.100;2023-02-01T11:07:54;5.80;99.90
14119;DHT22;7138;49.246;9.100;2023-02-01T11:10:38;5.80;99.90
14119;DHT22;7138;49.246;9.100;2023-02-01T11:13:13;5.50;99.90
14119;DHT22;7138;49.246;9.100;2023-02-01T11:15:44;5.40;99.90
14119;DHT22;7138;49.246;9.100;2023-02-01T11:18:17;5.30;99.90
14119;DHT22;7138;49.246;9.100;2023-02-01T11:20:45;5.20;99.90
14119;DHT22;7138;49.246;9.100;2023-02-01T11:23:18;5.20;99.90
14119;DHT22;7138;49.246;9.100;2023-02-01T11:25:48;5.10;99.90
14119;DHT22;7138;49.246;9.100;2023-02-01T11:28:16;5.20;99.90
14119;DHT22;7138;49.246;9.100;2023-02-01T11:30:45;5.20;99.90
14119;DHT22;7138;49.246;9.100;2023-02-01T11:33:15;5.20;99.90
14119;DHT22;7138;49.246;9.100;2023-02-01T11:35:44;5.30;99.90
14119;DHT22;7138;49.246;9.100;2023-02-01T11:38:30;5.40;99.90
14119;DHT22;7138;49.246;9.100;2023-02-01T11:41:11;5.40;99.90
14119;DHT22;7138;49.246;9.100;2023-02-01T11:43:51;5.50;99.90
14119;DHT22;7138;49.246;9.100;2023-02-01T11:46:22;5.60;99.90
14119;DHT22;7138;49.246;9.100;2023-02-01T11:48:51;5.70;99.90
14119;DHT22;7138;49.246;9.100;2023-02-01T11:51:30;5.70;99.90
14119;DHT22;7138;49.246;9.100;2023-02-01T11:54:14;5.70;99.90
14119;DHT22;7138;49.246;9.100;2023-02-01T11:57:00;5.60;99.90
14119;DHT22;7138;49.246;9.100;2023-02-01T11:59:56;5.50;99.90
14119;DHT22;7138;49.246;9.100;2023-02-01T12:03:15;5.30;99.90
14119;DHT22;7138;49.246;9.100;2023-02-01T12:06:05;5.30;99.90
14119;DHT22;7138;49.246;9.100;2023-02-01T12:08:59;5.40;99.90
14119;DHT22;7138;49.246;9.100;2023-02-01T12:11:51;5.30;99.90
14119;DHT22;7138;49.246;9.100;2023-02-01T12:14:39;5.40;99.90
14119;DHT22;7138;49.246;9.100;2023-02-01T12:20:17;5.60;99.90
14119;DHT22;7138;49.246;9.100;2023-02-01T12:23:04;5.60;99.90
14119;DHT22;7138;49.246;9.100;2023-02-01T12:25:56;5.60;99.90
14119;DHT22;7138;49.246;9.100;2023-02-01T12:32:03;5.60;99.90
14119;DHT22;7138;49.246;9.100;2023-02-01T12:35:12;5.60;99.90
14119;DHT22;7138;49.246;9.100;2023-02-01T12:37:56;5.60;99.90
14119;DHT22;7138;49.246;9.100;2023-02-01T12:40:45;5.60;99.90
14119;DHT22;7138;49.246;9.100;2023-02-01T12:43:28;5.70;99.90
14119;DHT22;7138;49.246;9.100;2023-02-01T12:46:07;5.70;99.90
14119;DHT22;7138;49.246;9.100;2023-02-01T12:48:40;5.80;99.90
14119;DHT22;7138;49.246;9.100;2023-02-01T12:51:17;5.80;99.90
14119;DHT22;7138;49.246;9.100;2023-02-01T12:53:50;5.80;99.90
14119;DHT22;7138;49.246;9.100;2023-02-01T12:56:23;5.80;99.90
14119;DHT22;7138;49.246;9.100;2023-02-01T12:58:58;5.80;99.90
14119;DHT22;7138;49.246;9.100;2023-02-01T13:01:31;5.80;99.90
14119;DHT22;7138;49.246;9.100;2023-02-01T13:04:10;5.90;99.90
14119;DHT22;7138;49.246;9.100;2023-02-01T13:06:43;5.80;99.90
14119;DHT22;7138;49.246;9.100;2023-02-01T13:09:19;5.80;99.90
14119;DHT22;7138;49.246;9.100;2023-02-01T13:11:52;5.80;99.90
14119;DHT22;7138;49.246;9.100;2023-02-01T13:14:29;5.80;99.90
14119;DHT22;7138;49.246;9.100;2023-02-01T13:17:01;5.80;99.90
14119;DHT22;7138;49.246;9.100;2023-02-01T13:19:37;5.90;99.90
14119;DHT22;7138;49.246;9.100;2023-02-01T13:22:11;5.90;99.90
14119;DHT22;7138;49.246;9.100;2023-02-01T13:24:43;5.90;99.90
14119;DHT22;7138;49.246;9.100;2023-02-01T13:27:13;5.90;99.90
14119;DHT22;7138;49.246;9.100;2023-02-01T13:29:48;5.90;99.90
14119;DHT22;7138;49.246;9.100;2023-02-01T13:32:29;5.90;99.90
14119;DHT22;7138;49.246;9.100;2023-02-01T13:35:31;5.90;99.90
14119;DHT22;7138;49.246;9.100;2023-02-01T13:38:32;5.90;99.90
14119;DHT22;7138;49.246;9.100;2023-02-01T13:41:24;5.80;99.90
14119;DHT22;7138;49.246;9.100;2023-02-01T13:43:56;5.70;99.90
14119;DHT22;7138;49.246;9.100;2023-02-01T13:46:26;5.70;99.90
14119;DHT22;7138;49.246;9.100;2023-02-01T13:48:55;5.70;99.90
14119;DHT22;7138;49.246;9.100;2023-02-01T13:51:35;5.70;99.90
14119;DHT22;7138;49.246;9.100;2023-02-01T13:54:06;5.80;99.90
14119;DHT22;7138;49.246;9.100;2023-02-01T13:56:40;5.80;99.90
14119;DHT22;7138;49.246;9.100;2023-02-01T13:59:36;5.70;99.90
14119;DHT22;7138;49.246;9.100;2023-02-01T14:08:44;5.80;99.90
14119;DHT22;7138;49.246;9.100;2023-02-01T14:11:33;5.80;99.90
14119;DHT22;7138;49.246;9.100;2023-02-01T14:17:39;5.70;99.90
14119;DHT22;7138;49.246;9.100;2023-02-01T14:23:12;5.70;99.90
14119;DHT22;7138;49.246;9.100;2023-02-01T14:25:41;5.70;99.90
14119;DHT22;7138;49.246;9.100;2023-02-01T14:28:18;5.70;99.90
14119;DHT22;7138;49.246;9.100;2023-02-01T14:30:50;5.70;99.90
14119;DHT22;7138;49.246;9.100;2023-02-01T14:33:22;5.70;99.90
14119;DHT22;7138;49.246;9.100;2023-02-01T14:36:05;5.70;99.90
14119;DHT22;7138;49.246;9.100;2023-02-01T14:38:35;5.70;99.90
14119;DHT22;7138;49.246;9.100;2023-02-01T14:41:33;5.70;99.90
14119;DHT22;7138;49.246;9.100;2023-02-01T14:44:25;5.80;99.90
14119;DHT22;7138;49.246;9.100;2023-02-01T14:50:18;5.80;99.90
14119;DHT22;7138;49.246;9.100;2023-02-01T14:53:14;5.70;99.90
14119;DHT22;7138;49.246;9.100;2023-02-01T14:55:49;5.80;99.90
14119;DHT22;7138;49.246;9.100;2023-02-01T14:58:32;5.70;99.90
14119;DHT22;7138;49.246;9.100;2023-02-01T15:01:13;5.80;99.90
14119;DHT22;7138;49.246;9.100;2023-02-01T15:03:48;5.70;99.90
14119;DHT22;7138;49.246;9.100;2023-02-01T15:06:32;5.80;99.90
14119;DHT22;7138;49.246;9.100;2023-02-01T15:09:08;5.80;99.90
14119;DHT22;7138;49.246;9.100;2023-02-01T15:11:56;5.70;99.90
14119;DHT22;7138;49.246;9.100;2023-02-01T15:14:24;5.70;99.90
14119;DHT22;7138;49.246;9.100;2023-02-01T15:16:50;5.70;99.90
14119;DHT22;7138;49.246;9.100;2023-02-01T15:19:20;5.70;99.90
14119;DHT22;7138;49.246;9.100;2023-02-01T15:21:49;5.70;99.90
14119;DHT22;7138;49.246;9.100;2023-02-01T15:24:22;5.70;99.90
14119;DHT22;7138;49.246;9.100;2023-02-01T15:26:49;5.70;99.90
14119;DHT22;7138;49.246;9.100;2023-02-01T15:29:24;5.70;99.90
14119;DHT22;7138;49.246;9.100;2023-02-01T15:31:53;5.80;99.90
14119;DHT22;7138;49.246;9.100;2023-02-01T15:34:20;5.70;99.90
14119;DHT22;7138;49.246;9.100;2023-02-01T15:36:46;5.70;99.90
14119;DHT22;7138;49.246;9.100;2023-02-01T15:39:16;5.70;99.90
14119;DHT22;7138;49.246;9.100;2023-02-01T15:41:49;5.70;99.90
14119;DHT22;7138;49.246;9.100;2023-02-01T15:44:27;5.70;99.90
14119;DHT22;7138;49.246;9.100;2023-02-01T15:46:58;5.70;99.90
14119;DHT22;7138;49.246;9.100;2023-02-01T15:49:28;5.70;99.90
14119;DHT22;7138;49.246;9.100;2023-02-01T15:51:57;5.60;99.90
14119;DHT22;7138;49.246;9.100;2023-02-01T15:54:27;5.60;99.90
14119;DHT22;7138;49.246;9.100;2023-02-01T15:57:00;5.60;99.90
14119;DHT22;7138;49.246;9.100;2023-02-01T15:59:40;5.60;99.90
14119;DHT22;7138;49.246;9.100;2023-02-01T16:02:25;5.60;99.90
14119;DHT22;7138;49.246;9.100;2023-02-01T16:04:52;5.60;99.90
14119;DHT22;7138;49.246;9.100;2023-02-01T16:07:27;5.60;99.90
14119;DHT22;7138;49.246;9.100;2023-02-01T16:09:56;5.50;99.90
14119;DHT22;7138;49.246;9.100;2023-02-01T16:12:30;5.60;99.90
14119;DHT22;7138;49.246;9.100;2023-02-01T16:14:59;5.50;99.90
14119;DHT22;7138;49.246;9.100;2023-02-01T16:17:25;5.50;99.90
14119;DHT22;7138;49.246;9.100;2023-02-01T16:19:51;5.50;99.90
14119;DHT22;7138;49.246;9.100;2023-02-01T16:22:17;5.40;99.90
14119;DHT22;7138;49.246;9.100;2023-02-01T16:24:43;5.50;99.90
14119;DHT22;7138;49.246;9.100;2023-02-01T16:27:08;5.40;99.90
14119;DHT22;7138;49.246;9.100;2023-02-01T16:29:36;5.40;99.90
14119;DHT22;7138;49.246;9.100;2023-02-01T16:32:02;5.40;99.90
14119;DHT22;7138;49.246;9.100;2023-02-01T16:34:28;5.40;99.90
14119;DHT22;7138;49.246;9.100;2023-02-01T16:36:54;5.40;99.90
14119;DHT22;7138;49.246;9.100;2023-02-01T16:39:23;5.40;99.90
14119;DHT22;7138;49.246;9.100;2023-02-01T16:41:49;5.40;99.90
14119;DHT22;7138;49.246;9.100;2023-02-01T16:44:16;5.40;99.90
14119;DHT22;7138;49.246;9.100;2023-02-01T16:46:44;5.40;99.90
14119;DHT22;7138;49.246;9.100;2023-02-01T16:49:19;5.50;99.90
14119;DHT22;7138;49.246;9.100;2023-02-01T16:51:47;5.40;99.90
14119;DHT22;7138;49.246;9.100;2023-02-01T16:54:14;5.40;99.90
14119;DHT22;7138;49.246;9.100;2023-02-01T16:56:41;5.40;99.90
14119;DHT22;7138;49.246;9.100;2023-02-01T16:59:07;5.40;99.90
14119;DHT22;7138;49.246;9.100;2023-02-01T17:01:34;5.30;99.90
14119;DHT22;7138;49.246;9.100;2023-02-01T17:04:04;5.30;99.90